M I D A S
Marine Information and Data Acquisition System
Tripno 227 of the Zeeleeuw from 2002-03-21 08:06:56 to 2002-03-21 14:39:55
Back to CruiseResearch ActivitiesStationsMapUnderway DataData graphs

EquipmentUnitsComment
TimeDGPSUTC
LatitudeDGPSDM.mWGS84
LongitudeDGPSDM.mWGS84
HeadingGyrodeg 
SOGDGPSknotsSpeed over ground
COGDGPSdegCourse over ground
DepthEcho soundermeters200 kHz
Missing or incorrect values are displayed as -999
Navigation data collected by the RV Zeeleeuw from 2002-03-21 08:06:56 to 2002-03-21 14:39:55
                                                                                    Next 1000 lines
Time Latitude Longitude Heading SOG COG Depth
2002-03-21 09:07:06 51°14.124 2°53.686 242.2 12.4 239.7 8.8
2002-03-21 09:07:11 51°14.114 2°53.663 240.8 12.3 238.2 8.8
2002-03-21 09:07:16 51°14.106 2°53.639 241.8 12.3 239.7 8.8
2002-03-21 09:07:22 51°14.095 2°53.612 241.2 12.2 238.7 8.8
2002-03-21 09:07:26 51°14.089 2°53.593 241.5 12.2 239.3 8.9
2002-03-21 09:07:31 51°14.08 2°53.57 241 12.3 239.3 8.9
2002-03-21 09:07:36 51°14.071 2°53.546 240.8 12.3 239.4 8.9
2002-03-21 09:07:41 51°14.063 2°53.523 241.7 12.2 239.7 8.9
2002-03-21 09:07:46 51°14.055 2°53.5 241.3 12.2 239.8 8.9
2002-03-21 09:07:51 51°14.046 2°53.476 242.2 12.2 240.5 9
2002-03-21 09:07:56 51°14.038 2°53.453 242 12.2 240.1 9
2002-03-21 09:08:02 51°14.027 2°53.425 241 12.2 239.7 9
2002-03-21 09:08:06 51°14.021 2°53.406 241.3 12.3 239.6 9
2002-03-21 09:08:11 51°14.012 2°53.383 242 12.2 239.8 9
2002-03-21 09:08:16 51°14.004 2°53.36 241.5 12.2 239.8 9
2002-03-21 09:08:22 51°13.994 2°53.331 241.5 12.2 240.4 9
2002-03-21 09:08:26 51°13.986 2°53.313 241.5 12.2 239.5 9.1
2002-03-21 09:08:32 51°13.977 2°53.285 241.3 12.2 240.2 9.2
2002-03-21 09:08:36 51°13.969 2°53.266 240.8 12.2 239.5 9.2
2002-03-21 09:08:42 51°13.959 2°53.238 240.8 12.2 239.2 9.1
2002-03-21 09:08:46 51°13.952 2°53.22 240.3 12.2 238.5 9.1
2002-03-21 09:08:51 51°13.944 2°53.197 240.7 12.3 239.1 9.2
2002-03-21 09:08:56 51°13.935 2°53.174 240.5 12.2 238.8 9.3
2002-03-21 09:09:02 51°13.924 2°53.147 240.2 12.2 238.7 9.3
2002-03-21 09:09:06 51°13.917 2°53.128 240.3 12.2 238.9 9.3
2002-03-21 09:09:12 51°13.907 2°53.1 240.3 12.2 238.6 9.3
2002-03-21 09:09:16 51°13.9 2°53.081 240.3 12.2 239.1 9.3
2002-03-21 09:09:21 51°13.891 2°53.058 241.7 12.3 238.7 9.3
2002-03-21 09:09:26 51°13.882 2°53.035 240.7 12.2 239.3 9.4
2002-03-21 09:09:31 51°13.874 2°53.012 241 12.2 239.4 9.3
2002-03-21 09:09:36 51°13.864 2°52.989 241.2 12.3 238.8 9.1
2002-03-21 09:09:42 51°13.854 2°52.96 240.3 12.4 238.9 9.4
2002-03-21 09:09:46 51°13.846 2°52.941 240.3 12.6 238.4 9.4
2002-03-21 09:09:51 51°13.837 2°52.917 240.7 12.8 238.9 9.5
2002-03-21 09:09:56 51°13.828 2°52.892 241.2 13 239.1 9.6
2002-03-21 09:10:01 51°13.819 2°52.867 241.2 13.2 239.2 9.5
2002-03-21 09:10:06 51°13.809 2°52.842 241.2 13.2 239.1 9.5
2002-03-21 09:10:11 51°13.8 2°52.817 240.7 13.2 239 9.5
2002-03-21 09:10:16 51°13.79 2°52.792 240.7 13.3 238.5 9.5
2002-03-21 09:10:22 51°13.779 2°52.761 241.3 13.5 239.8 9.5
2002-03-21 09:10:27 51°13.769 2°52.736 240.8 13.5 238.6 9.6
2002-03-21 09:10:31 51°13.762 2°52.715 240.7 13.4 239.2 9.5
2002-03-21 09:10:36 51°13.752 2°52.689 241.2 13.6 238.7 9.5
2002-03-21 09:10:42 51°13.74 2°52.658 241.2 13.6 239.1 9.5
2002-03-21 09:10:46 51°13.733 2°52.638 240.3 13.6 238.8 9.5
2002-03-21 09:10:51 51°13.723 2°52.612 240.5 13.6 238.8 9.6
2002-03-21 09:10:56 51°13.713 2°52.586 240.8 13.7 239.1 9.6
2002-03-21 09:11:02 51°13.701 2°52.555 240.5 13.6 239 9.6
2002-03-21 09:11:06 51°13.693 2°52.535 240.5 13.7 238.3 9.6
2002-03-21 09:11:12 51°13.682 2°52.503 240.7 13.7 239.2 9.6
2002-03-21 09:11:16 51°13.674 2°52.483 240.5 13.7 238.3 9.4
2002-03-21 09:11:21 51°13.664 2°52.457 241 13.7 239.4 9.7
2002-03-21 09:11:26 51°13.654 2°52.431 240.7 13.7 238.9 9.6
2002-03-21 09:11:32 51°13.643 2°52.399 240.8 13.8 239.2 9.7
2002-03-21 09:11:36 51°13.635 2°52.379 241.5 13.8 239.4 9.7
2002-03-21 09:11:40 51°13.627 2°52.358 241.3 13.7 239.3 9.7
2002-03-21 09:11:46 51°13.615 2°52.327 240.7 13.7 239.1 9.7
2002-03-21 09:11:51 51°13.606 2°52.301 240.8 13.8 239.4 9.8
2002-03-21 09:11:56 51°13.596 2°52.275 241.2 13.7 238.9 9.8
2002-03-21 09:12:02 51°13.584 2°52.244 239.8 13.7 238.7 9.8
2002-03-21 09:12:06 51°13.576 2°52.223 240.3 13.7 238.6 9.8
2002-03-21 09:12:12 51°13.564 2°52.192 240.3 13.7 238.3 9.8
2002-03-21 09:12:16 51°13.557 2°52.171 241.7 13.7 239.1 9.8
2002-03-21 09:12:20 51°13.549 2°52.151 241 13.7 239.3 9.8
2002-03-21 09:12:26 51°13.537 2°52.12 241.2 13.6 238.7 9.9
2002-03-21 09:12:31 51°13.527 2°52.094 239.7 13.6 238 9.8
2002-03-21 09:12:36 51°13.517 2°52.069 240 13.6 238.1 9.8
2002-03-21 09:12:42 51°13.505 2°52.038 240.2 13.5 237.9 9.8
2002-03-21 09:12:46 51°13.497 2°52.018 239.7 13.6 237.6 9.8
2002-03-21 09:12:51 51°13.487 2°51.993 239.8 13.6 237.8 9.8
2002-03-21 09:12:56 51°13.476 2°51.968 237.7 13.6 237.1 9.8
2002-03-21 09:13:01 51°13.465 2°51.944 234.8 13.5 234 9.7
2002-03-21 09:13:06 51°13.454 2°51.92 234.8 13.6 232.9 9.7
2002-03-21 09:13:11 51°13.443 2°51.895 236.3 13.6 234.7 9.7
2002-03-21 09:13:16 51°13.432 2°51.871 237.7 13.6 234.8 9.7
2002-03-21 09:13:20 51°13.425 2°51.85 239 13.6 237 9.8
2002-03-21 09:13:26 51°13.413 2°51.82 238.8 13.6 237.6 9.7
2002-03-21 09:13:31 51°13.402 2°51.794 240.2 13.7 237.9 9.8
2002-03-21 09:13:36 51°13.393 2°51.768 240 13.6 239.1 9.7
2002-03-21 09:13:41 51°13.383 2°51.743 240.3 13.6 238.5 9.7
2002-03-21 09:13:46 51°13.373 2°51.717 241 13.7 239 9.7
2002-03-21 09:13:51 51°13.364 2°51.69 240.8 13.7 239.7 9.7
2002-03-21 09:13:56 51°13.354 2°51.665 240.8 13.7 239.1 9.7
2002-03-21 09:14:01 51°13.345 2°51.638 241 13.7 239.6 9.7
2002-03-21 09:14:06 51°13.335 2°51.613 241 13.7 238.7 9.7
2002-03-21 09:14:12 51°13.323 2°51.582 240.3 13.6 238.7 9.7
2002-03-21 09:14:16 51°13.315 2°51.561 240 13.6 238.8 9.6
2002-03-21 09:14:22 51°13.303 2°51.531 240.2 13.7 238.1 9.7
2002-03-21 09:14:26 51°13.295 2°51.51 240 13.7 238.7 9.6
2002-03-21 09:14:31 51°13.285 2°51.485 240 13.7 238.1 9.6
2002-03-21 09:14:36 51°13.275 2°51.459 240.7 13.6 238.8 9.6
2002-03-21 09:14:41 51°13.265 2°51.434 239.7 13.6 237.9 9.6
2002-03-21 09:14:46 51°13.255 2°51.408 239.7 13.7 238.2 9.6
2002-03-21 09:14:51 51°13.245 2°51.382 240 13.7 238.2 9.6
2002-03-21 09:14:56 51°13.235 2°51.357 239.3 13.6 238.1 9.6
2002-03-21 09:15:01 51°13.225 2°51.331 239.8 13.7 237.4 9.6
2002-03-21 09:15:06 51°13.215 2°51.305 239.8 13.7 238.2 9.7
2002-03-21 09:15:11 51°13.204 2°51.281 239.7 13.7 238 9.6
2002-03-21 09:15:16 51°13.195 2°51.254 239.5 13.7 238.3 9.6
2002-03-21 09:15:21 51°13.184 2°51.229 239.2 13.6 237.6 9.6
2002-03-21 09:15:27 51°13.173 2°51.198 239.2 13.7 237.9 9.6
2002-03-21 09:15:31 51°13.164 2°51.178 240 13.7 238.3 9.6
2002-03-21 09:15:36 51°13.154 2°51.152 239.8 13.7 238.1 9.7
2002-03-21 09:15:41 51°13.144 2°51.126 240 13.7 238.2 9.7
2002-03-21 09:15:46 51°13.134 2°51.1 240 13.7 238.3 9.8
2002-03-21 09:15:51 51°13.125 2°51.075 239.5 13.7 238.5 9.7
2002-03-21 09:15:55 51°13.116 2°51.054 240.3 13.7 237.7 9.7
2002-03-21 09:16:01 51°13.104 2°51.023 239.5 13.8 238.1 9.7
2002-03-21 09:16:06 51°13.095 2°50.997 239.5 13.7 238.2 9.7
2002-03-21 09:16:12 51°13.082 2°50.966 239.7 13.7 237.9 9.7
2002-03-21 09:16:16 51°13.075 2°50.946 239.5 13.7 238.4 9.7
2002-03-21 09:16:22 51°13.062 2°50.915 240 13.7 238.1 9.7
2002-03-21 09:16:26 51°13.055 2°50.894 239.8 13.7 238.8 9.6
2002-03-21 09:16:31 51°13.044 2°50.869 240 13.7 237.9 9.7
2002-03-21 09:16:36 51°13.035 2°50.842 240.5 13.8 238.9 9.8
2002-03-21 09:16:40 51°13.026 2°50.822 239.8 13.7 238.4 9.8
2002-03-21 09:16:46 51°13.014 2°50.791 239.7 13.7 238.1 9.7
2002-03-21 09:16:51 51°13.004 2°50.765 239.8 13.7 238.2 9.7
2002-03-21 09:16:56 51°12.994 2°50.74 240 13.7 238.1 9.7
2002-03-21 09:17:02 51°12.982 2°50.709 239 13.8 237.9 9.6
2002-03-21 09:17:06 51°12.974 2°50.688 239.3 13.8 237.7 9.7
2002-03-21 09:17:11 51°12.964 2°50.662 239.2 13.8 238.3 9.7
2002-03-21 09:17:16 51°12.953 2°50.637 238.7 13.7 237.7 9.7
2002-03-21 09:17:22 51°12.942 2°50.605 240.2 13.8 237.4 9.7
2002-03-21 09:17:26 51°12.933 2°50.586 239.3 13.7 237.6 9.7
2002-03-21 09:17:31 51°12.923 2°50.56 238.8 13.7 237.8 9.7
2002-03-21 09:17:36 51°12.913 2°50.534 239.7 13.8 237.9 9.7
2002-03-21 09:17:42 51°12.9 2°50.503 239.2 13.8 237.7 9.7
2002-03-21 09:17:46 51°12.893 2°50.483 239.3 13.7 238.4 9.7
2002-03-21 09:17:51 51°12.882 2°50.457 239.8 13.7 237.9 9.7
2002-03-21 09:17:56 51°12.873 2°50.43 239.3 13.8 238.7 9.7
2002-03-21 09:18:02 51°12.86 2°50.4 239.8 13.8 237.7 9.7
2002-03-21 09:18:06 51°12.853 2°50.379 239.8 13.7 238.4 9.7
2002-03-21 09:18:11 51°12.842 2°50.354 239.2 13.7 237.9 9.7
2002-03-21 09:18:16 51°12.832 2°50.328 240.2 13.8 238.1 9.7
2002-03-21 09:18:22 51°12.82 2°50.297 240 13.7 238.2 9.7
2002-03-21 09:18:26 51°12.812 2°50.276 239.7 13.7 238.3 9.7
2002-03-21 09:18:32 51°12.8 2°50.246 239.8 13.7 238.4 9.6
2002-03-21 09:18:36 51°12.792 2°50.225 239.8 13.8 238 9.7
2002-03-21 09:18:42 51°12.78 2°50.193 240.8 13.8 239.1 9.7
2002-03-21 09:18:46 51°12.772 2°50.173 240 13.7 238.8 9.6
2002-03-21 09:18:51 51°12.763 2°50.147 240 13.8 238.6 9.6
2002-03-21 09:18:56 51°12.753 2°50.121 240.8 13.8 238.7 9.7
2002-03-21 09:19:02 51°12.741 2°50.09 239.7 13.7 238.3 9.7
2002-03-21 09:19:06 51°12.732 2°50.07 239.5 13.7 237.9 9.5
2002-03-21 09:19:11 51°12.723 2°50.044 240 13.8 238.6 9.6
2002-03-21 09:19:15 51°12.714 2°50.023 239.5 13.7 237.6 9.5
2002-03-21 09:19:21 51°12.703 2°49.992 239 13.8 238.2 9.5
2002-03-21 09:19:26 51°12.692 2°49.966 239.8 13.8 237.9 9.5
2002-03-21 09:19:31 51°12.682 2°49.94 239.8 13.7 238.2 9.6
2002-03-21 09:19:36 51°12.673 2°49.914 239.8 13.8 238.5 9.5
2002-03-21 09:19:42 51°12.661 2°49.883 240 13.8 238.8 9.6
2002-03-21 09:19:46 51°12.652 2°49.863 239.7 13.8 238.4 9.6
2002-03-21 09:19:51 51°12.643 2°49.836 239.7 13.8 238.6 9.5
2002-03-21 09:19:56 51°12.633 2°49.811 239.7 13.8 238.4 9.6
2002-03-21 09:20:01 51°12.622 2°49.785 240.2 13.8 238.1 9.6
2002-03-21 09:20:06 51°12.612 2°49.758 239.3 13.9 238.4 9.6
2002-03-21 09:20:11 51°12.602 2°49.733 240 13.9 237.6 9.6
2002-03-21 09:20:16 51°12.591 2°49.707 239.8 13.9 237.8 9.6
2002-03-21 09:20:21 51°12.581 2°49.681 240 13.9 238.1 9.6
2002-03-21 09:20:26 51°12.571 2°49.655 240.2 13.9 238 9.6
2002-03-21 09:20:31 51°12.561 2°49.629 239.7 13.9 238.2 9.5
2002-03-21 09:20:36 51°12.55 2°49.603 239.8 13.9 237.8 9.5
2002-03-21 09:20:42 51°12.538 2°49.572 240.2 13.9 238.1 9.6
2002-03-21 09:20:46 51°12.53 2°49.552 239.2 13.9 237.3 9.5
2002-03-21 09:20:51 51°12.52 2°49.525 240.2 14 238 9.5
2002-03-21 09:20:56 51°12.509 2°49.499 240 14 237.9 9.5
2002-03-21 09:21:02 51°12.497 2°49.468 239.3 13.9 237.9 9.5
2002-03-21 09:21:06 51°12.489 2°49.447 239.7 13.9 237.5 9.5
2002-03-21 09:21:11 51°12.479 2°49.421 239.2 14 238.4 9.4
2002-03-21 09:21:16 51°12.468 2°49.396 239.7 13.9 237 9.5
2002-03-21 09:21:22 51°12.456 2°49.364 239.2 13.9 237.7 9.5
2002-03-21 09:21:26 51°12.447 2°49.344 239.2 13.8 237.2 9.4
2002-03-21 09:21:32 51°12.435 2°49.313 239.5 13.9 237.2 9.5
2002-03-21 09:21:36 51°12.427 2°49.291 239.8 13.9 237.2 9.5
2002-03-21 09:21:41 51°12.416 2°49.266 239.8 13.9 237.6 9.5
2002-03-21 09:21:46 51°12.406 2°49.24 239.8 13.8 237.8 9.4
2002-03-21 09:21:50 51°12.398 2°49.219 240.5 13.8 238 9.4
2002-03-21 09:21:57 51°12.385 2°49.182 241.8 13.9 239.2 9.4
2002-03-21 09:22:02 51°12.376 2°49.155 243.2 13.8 241.1 9.4
2002-03-21 09:22:06 51°12.368 2°49.134 244.2 13.8 241.2 9.4
2002-03-21 09:22:11 51°12.36 2°49.106 245.2 13.8 243 9.5
2002-03-21 09:22:16 51°12.352 2°49.079 245.7 13.8 243.6 9.2
2002-03-21 09:22:22 51°12.341 2°49.046 246.7 13.8 243.8 9.4
2002-03-21 09:22:26 51°12.335 2°49.024 246.3 13.8 243.9 9.4
2002-03-21 09:22:31 51°12.326 2°48.997 246 13.8 243.6 9.5
2002-03-21 09:22:36 51°12.318 2°48.969 245.8 13.9 244.1 9.5
2002-03-21 09:22:42 51°12.308 2°48.936 246.3 13.9 243.9 9.5
2002-03-21 09:22:46 51°12.3 2°48.915 245.7 13.8 243.5 9.5
2002-03-21 09:22:51 51°12.292 2°48.887 245.2 13.8 243.6 9.5
2002-03-21 09:22:56 51°12.283 2°48.86 245.8 13.8 243.1 9.3
2002-03-21 09:23:02 51°12.273 2°48.828 245.2 13.8 242.8 9.5
2002-03-21 09:23:06 51°12.265 2°48.806 244.7 13.8 242.4 9.6
2002-03-21 09:23:12 51°12.255 2°48.773 244.3 13.8 242.5 9.6
2002-03-21 09:23:16 51°12.247 2°48.752 244.7 13.9 242.1 9.6
2002-03-21 09:23:20 51°12.241 2°48.73 244.3 13.8 242.4 9.6
2002-03-21 09:23:26 51°12.23 2°48.698 244.5 13.8 242 9.6
2002-03-21 09:23:31 51°12.221 2°48.671 244.5 13.9 241.9 9.6
2002-03-21 09:23:36 51°12.212 2°48.644 244.5 13.9 242.3 9.5
2002-03-21 09:23:41 51°12.202 2°48.617 244.7 13.9 241.6 9.6
2002-03-21 09:23:46 51°12.194 2°48.589 244.2 13.9 242.6 9.6
2002-03-21 09:23:51 51°12.184 2°48.563 244.7 13.9 242 9.6
2002-03-21 09:23:56 51°12.176 2°48.535 244.7 13.9 242.3 9.5
2002-03-21 09:24:01 51°12.167 2°48.508 245 13.9 242.5 9.6
2002-03-21 09:24:06 51°12.158 2°48.481 245 13.9 242.8 9.6
2002-03-21 09:24:11 51°12.149 2°48.453 244.8 13.9 242.7 9.6
2002-03-21 09:24:16 51°12.14 2°48.426 245.2 13.9 242.8 9.7
2002-03-21 09:24:22 51°12.13 2°48.393 244.5 13.9 242.6 9.6
2002-03-21 09:24:26 51°12.123 2°48.371 244.7 13.9 242.5 9.6
2002-03-21 09:24:31 51°12.114 2°48.344 244.8 14 242.7 9.7
2002-03-21 09:24:36 51°12.105 2°48.316 245 14 242.9 9.7
2002-03-21 09:24:42 51°12.094 2°48.284 244.8 13.9 242.5 9.7
2002-03-21 09:24:46 51°12.087 2°48.262 244.7 13.9 242.7 9.7
2002-03-21 09:24:52 51°12.076 2°48.229 244.7 14 242.4 9.6
2002-03-21 09:24:56 51°12.069 2°48.207 245.2 14 242.5 9.6
2002-03-21 09:25:02 51°12.058 2°48.175 244.5 13.9 242.2 9.6
2002-03-21 09:25:06 51°12.051 2°48.153 244.2 13.9 242 9.6
2002-03-21 09:25:12 51°12.04 2°48.12 244.5 14 242.3 9.6
2002-03-21 09:25:16 51°12.033 2°48.098 244 13.9 242.3 9.6
2002-03-21 09:25:22 51°12.022 2°48.066 244.3 13.9 242.2 9.6
2002-03-21 09:25:26 51°12.015 2°48.044 244.5 14 242.1 9.6
2002-03-21 09:25:32 51°12.004 2°48.011 244.5 14 243 9.6
2002-03-21 09:25:36 51°11.997 2°47.989 244.5 14 242.3 9.6
2002-03-21 09:25:41 51°11.989 2°47.961 245.3 14 243.3 9.6
2002-03-21 09:25:46 51°11.979 2°47.935 244.3 13.9 242 9.6
2002-03-21 09:25:51 51°11.971 2°47.907 244.7 13.9 242.9 9.6
2002-03-21 09:25:56 51°11.962 2°47.88 244.3 13.9 242.9 9.6
2002-03-21 09:26:01 51°11.953 2°47.853 244.3 13.9 242.3 9.6
2002-03-21 09:26:06 51°11.945 2°47.825 245.5 14 243 9.6
2002-03-21 09:26:11 51°11.935 2°47.798 244.5 13.9 242.6 9.6
2002-03-21 09:26:16 51°11.927 2°47.771 244.2 13.9 242.9 9.5
2002-03-21 09:26:22 51°11.916 2°47.738 245 14 242.6 9.6
2002-03-21 09:26:26 51°11.908 2°47.716 245.2 14 242.8 9.6
2002-03-21 09:26:32 51°11.898 2°47.683 244.7 13.9 242.7 9.5
2002-03-21 09:26:36 51°11.891 2°47.661 244.7 13.9 243 9.5
2002-03-21 09:26:42 51°11.88 2°47.628 245 13.9 243 9.4
2002-03-21 09:26:46 51°11.873 2°47.607 244.8 13.9 242.6 9.4
2002-03-21 09:26:52 51°11.863 2°47.574 244.8 13.9 243 9.5
2002-03-21 09:26:56 51°11.855 2°47.552 245.2 14 242.8 9.4
2002-03-21 09:27:01 51°11.847 2°47.525 245 13.9 242.9 9.5
2002-03-21 09:27:06 51°11.838 2°47.497 244.8 14 242.6 9.4
2002-03-21 09:27:11 51°11.829 2°47.47 244.5 13.9 242.6 9.4
2002-03-21 09:27:16 51°11.82 2°47.442 244.5 13.9 242.8 9.3
2002-03-21 09:27:21 51°11.811 2°47.415 245.5 13.9 242.5 9.4
2002-03-21 09:27:26 51°11.803 2°47.388 244.7 13.9 242.8 9.4
2002-03-21 09:27:31 51°11.794 2°47.361 245 13.9 243.1 9.4
2002-03-21 09:27:36 51°11.785 2°47.333 245.2 14 242.5 9.3
2002-03-21 09:27:41 51°11.777 2°47.306 244.7 14 243.4 9.3
2002-03-21 09:27:46 51°11.767 2°47.279 245.2 14 242.7 9.3
2002-03-21 09:27:51 51°11.759 2°47.251 245.8 14 243.4 9.3
2002-03-21 09:27:56 51°11.75 2°47.224 244.3 13.8 243 9.3
2002-03-21 09:28:02 51°11.739 2°47.191 244.3 13.9 242.7 9.2
2002-03-21 09:28:06 51°11.732 2°47.168 245.2 14 243 9.3
2002-03-21 09:28:11 51°11.723 2°47.141 245 14 242.9 9.2
2002-03-21 09:28:16 51°11.715 2°47.114 244.3 13.9 242.7 9.1
2002-03-21 09:28:22 51°11.704 2°47.081 244.8 13.9 243.1 9.2
2002-03-21 09:28:26 51°11.697 2°47.059 245.2 14 242.6 9.2
2002-03-21 09:28:32 51°11.687 2°47.026 244.8 14 243.1 9.1
2002-03-21 09:28:36 51°11.679 2°47.004 244.8 14 243.1 9.1
2002-03-21 09:28:42 51°11.669 2°46.971 245 14 243 9.1
2002-03-21 09:28:46 51°11.662 2°46.95 244.8 14 242.7 9.1
2002-03-21 09:28:52 51°11.651 2°46.917 244.5 13.9 242.8 9.1
2002-03-21 09:28:56 51°11.643 2°46.895 244.3 14 242.3 9.1
2002-03-21 09:29:01 51°11.635 2°46.867 244.5 14 242.9 9.1
2002-03-21 09:29:06 51°11.626 2°46.84 244.3 13.9 242.6 9
2002-03-21 09:29:11 51°11.617 2°46.813 244.7 13.9 242.3 9.1
2002-03-21 09:29:16 51°11.609 2°46.785 244.3 14 243 9
2002-03-21 09:29:21 51°11.6 2°46.758 245.2 14 242.9 9
2002-03-21 09:29:26 51°11.591 2°46.73 245 14 243.2 9
2002-03-21 09:29:31 51°11.583 2°46.703 244.8 13.9 243.2 9
2002-03-21 09:29:36 51°11.574 2°46.675 246.5 14 244 9
2002-03-21 09:29:41 51°11.566 2°46.646 247.5 14 245.3 9
2002-03-21 09:29:46 51°11.558 2°46.619 247.5 14 245.6 9
2002-03-21 09:29:51 51°11.551 2°46.59 249.2 14 247.1 9.1
2002-03-21 09:29:57 51°11.542 2°46.555 250.3 14 248.2 9.1
2002-03-21 09:30:02 51°11.535 2°46.526 251.3 14 248.8 9.1
2002-03-21 09:30:06 51°11.53 2°46.503 252 14 249.6 9.1
2002-03-21 09:30:12 51°11.522 2°46.468 252 14 249.7 9.2
2002-03-21 09:30:16 51°11.517 2°46.445 252.3 14.1 249.9 9.2
2002-03-21 09:30:20 51°11.512 2°46.421 252.2 14.1 249.7 9.3
2002-03-21 09:30:26 51°11.504 2°46.386 252.5 14 250.1 9.3
2002-03-21 09:30:31 51°11.497 2°46.357 251.5 14.1 249.4 9.3
2002-03-21 09:30:36 51°11.49 2°46.328 251.7 14.1 249.8 9.4
2002-03-21 09:30:42 51°11.481 2°46.294 251.7 14.1 249 9.4
2002-03-21 09:30:46 51°11.476 2°46.27 251.3 14.1 249.5 9.4
2002-03-21 09:30:51 51°11.469 2°46.241 251.8 14.1 249.4 9.4
2002-03-21 09:30:56 51°11.462 2°46.212 251.5 14.1 249.4 9.5
2002-03-21 09:31:02 51°11.454 2°46.177 250.2 14 248.6 9.4
2002-03-21 09:31:06 51°11.448 2°46.154 251 14.1 248.5 9.5
2002-03-21 09:31:11 51°11.441 2°46.125 250.5 14.1 248.4 9.5
2002-03-21 09:31:16 51°11.433 2°46.096 250.2 14.1 248.2 9.5
2002-03-21 09:31:21 51°11.426 2°46.068 250.3 14.1 248.2 9.5
2002-03-21 09:31:26 51°11.419 2°46.039 250.2 14.1 247.8 9.5
2002-03-21 09:31:32 51°11.41 2°46.004 249.7 14 247.6 9.5
2002-03-21 09:31:36 51°11.404 2°45.981 250.5 14.1 247.9 9.5
2002-03-21 09:31:40 51°11.399 2°45.958 251 14.1 248.4 9.5
2002-03-21 09:31:46 51°11.39 2°45.923 250.3 14.1 248 9.6
2002-03-21 09:31:51 51°11.383 2°45.894 250.2 14.1 248.7 9.6
2002-03-21 09:31:56 51°11.376 2°45.866 250.3 14.1 248.3 9.6
2002-03-21 09:32:02 51°11.367 2°45.831 251.2 14.1 249.1 9.6
2002-03-21 09:32:06 51°11.361 2°45.808 250.7 14.1 248.5 9.6
2002-03-21 09:32:12 51°11.353 2°45.772 251.2 14.1 249.3 9.6
2002-03-21 09:32:16 51°11.346 2°45.75 251.2 14.1 248.4 9.6
2002-03-21 09:32:20 51°11.342 2°45.726 251.2 14.1 249.4 9.7
2002-03-21 09:32:26 51°11.333 2°45.692 251 14.1 248.6 9.6
2002-03-21 09:32:31 51°11.326 2°45.662 251 14.1 249 9.7
2002-03-21 09:32:36 51°11.319 2°45.633 251 14.1 248.5 9.7
2002-03-21 09:32:41 51°11.311 2°45.604 250.7 14.1 248.3 9.6
2002-03-21 09:32:46 51°11.305 2°45.575 250.8 14.1 249 9.7
2002-03-21 09:32:51 51°11.297 2°45.547 251 14.1 248.6 9.6
2002-03-21 09:32:56 51°11.29 2°45.517 250.8 14.1 248.8 9.6
2002-03-21 09:33:02 51°11.282 2°45.483 250.2 14.1 248.3 9.6
2002-03-21 09:33:06 51°11.276 2°45.459 250.8 14.1 248.4 9.6
2002-03-21 09:33:12 51°11.267 2°45.425 250.3 14 248.5 9.7
2002-03-21 09:33:16 51°11.262 2°45.402 250.3 14 248.6 9.6
2002-03-21 09:33:20 51°11.256 2°45.378 251.2 14.1 248.9 9.6
2002-03-21 09:33:26 51°11.248 2°45.344 250.7 14.1 249.1 9.7
2002-03-21 09:33:31 51°11.241 2°45.315 250.5 14 248.7 9.6
2002-03-21 09:33:36 51°11.234 2°45.286 250.8 14.1 248.6 9.6
2002-03-21 09:33:41 51°11.227 2°45.257 250.7 14.2 248.5 9.7
2002-03-21 09:33:46 51°11.22 2°45.228 250.2 14.1 248.6 9.6
2002-03-21 09:33:51 51°11.212 2°45.199 250.2 14 247.8 9.6
2002-03-21 09:33:56 51°11.205 2°45.17 250.5 14.1 248.7 9.6
2002-03-21 09:34:02 51°11.196 2°45.135 250.8 14.1 248.2 9.6
2002-03-21 09:34:06 51°11.191 2°45.112 250.7 14.1 248.8 9.7
2002-03-21 09:34:11 51°11.184 2°45.083 250.5 14.1 249.2 9.6
2002-03-21 09:34:16 51°11.176 2°45.055 250.7 14.1 248.2 9.6
2002-03-21 09:34:22 51°11.168 2°45.02 250.8 14.1 248.7 9.6
2002-03-21 09:34:26 51°11.162 2°44.997 250.7 14.1 248.7 9.6
2002-03-21 09:34:31 51°11.155 2°44.968 251.7 14.1 249 9.6
2002-03-21 09:34:36 51°11.149 2°44.938 252.3 14 249.8 9.6
2002-03-21 09:34:42 51°11.141 2°44.903 253.5 14.1 251.2 9.6
2002-03-21 09:34:46 51°11.137 2°44.879 255.2 14.2 252.2 9.7
2002-03-21 09:34:51 51°11.132 2°44.849 256.7 14.1 253.9 9.7
2002-03-21 09:34:56 51°11.127 2°44.819 258.3 14.1 255.2 9.7
2002-03-21 09:35:02 51°11.122 2°44.783 260.2 14.1 257.1 9.7
2002-03-21 09:35:06 51°11.119 2°44.758 262.3 14.1 258.8 9.8
2002-03-21 09:35:12 51°11.116 2°44.721 264.3 14.1 260.8 9.8
2002-03-21 09:35:16 51°11.114 2°44.697 265.3 14.1 262.2 9.8
2002-03-21 09:35:22 51°11.111 2°44.66 266.8 14.1 262.8 9.9
2002-03-21 09:35:27 51°11.109 2°44.629 267.2 14.1 264.2 10
2002-03-21 09:35:31 51°11.108 2°44.604 268.2 14.1 264.1 10
2002-03-21 09:35:36 51°11.106 2°44.573 267.8 14 265 10
2002-03-21 09:35:42 51°11.104 2°44.536 268.2 14.1 264.5 10.1
2002-03-21 09:35:46 51°11.102 2°44.512 267.7 14.1 264.3 10.1
2002-03-21 09:35:51 51°11.1 2°44.481 267.7 14.1 264.6 10.2
2002-03-21 09:35:56 51°11.099 2°44.45 267.8 14.1 264.6 10.3
2002-03-21 09:36:02 51°11.097 2°44.412 268.2 14.1 264.6 10.3
2002-03-21 09:36:06 51°11.095 2°44.388 269 14.1 265.4 10.3
2002-03-21 09:36:11 51°11.094 2°44.357 269.7 14.1 266.1 10.4
2002-03-21 09:36:16 51°11.093 2°44.326 270.2 14.1 266.9 10.4
2002-03-21 09:36:22 51°11.093 2°44.288 271 14.1 267.6 10.5
2002-03-21 09:36:27 51°11.092 2°44.257 272.2 14.1 268.3 10.5
2002-03-21 09:36:31 51°11.092 2°44.232 273 14.1 269.4 10.6
2002-03-21 09:36:36 51°11.092 2°44.201 273.7 14.1 269.3 10.6
2002-03-21 09:36:41 51°11.092 2°44.17 274 14.1 270.3 10.7
2002-03-21 09:36:46 51°11.092 2°44.139 274 14.1 270.4 10.7
2002-03-21 09:36:52 51°11.092 2°44.102 273.8 14.1 270.6 10.7
2002-03-21 09:36:57 51°11.092 2°44.07 274 14.1 270.3 10.8
2002-03-21 09:37:02 51°11.093 2°44.039 274 14.1 270.4 10.9
2002-03-21 09:37:06 51°11.093 2°44.014 273.5 14.1 270 11
2002-03-21 09:37:11 51°11.092 2°43.983 273.2 14.1 269.7 10.8
2002-03-21 09:37:16 51°11.092 2°43.952 272.8 14.1 269.5 11.1
2002-03-21 09:37:22 51°11.092 2°43.915 272.8 14.1 269.5 11.1
2002-03-21 09:37:26 51°11.092 2°43.89 272.5 14.1 269.1 11.1
2002-03-21 09:37:31 51°11.092 2°43.859 272.8 14.1 269.8 11.1
2002-03-21 09:37:36 51°11.091 2°43.827 272.8 14.1 269.4 11.2
2002-03-21 09:37:42 51°11.091 2°43.79 273 14.1 269.5 11.3
2002-03-21 09:37:46 51°11.091 2°43.765 273.2 14.1 269.5 11.3
2002-03-21 09:37:52 51°11.091 2°43.728 273 14.1 269.9 11.3
2002-03-21 09:37:56 51°11.091 2°43.703 273.2 14.1 269.7 11.4
2002-03-21 09:38:02 51°11.091 2°43.666 273 14.1 269.8 11.4
2002-03-21 09:38:06 51°11.091 2°43.641 272.7 14.1 269.4 11.4
2002-03-21 09:38:11 51°11.091 2°43.61 273 14.1 269.3 11.4
2002-03-21 09:38:16 51°11.091 2°43.579 273 14.1 269.6 11.4
2002-03-21 09:38:22 51°11.09 2°43.542 272.5 14.1 269.3 11.5
2002-03-21 09:38:26 51°11.09 2°43.517 272.7 14.1 269.6 11.5
2002-03-21 09:38:31 51°11.09 2°43.486 272.3 14.1 269.3 11.5
2002-03-21 09:38:36 51°11.09 2°43.455 272.7 14.1 269.6 11.5
2002-03-21 09:38:42 51°11.09 2°43.417 272.8 14.1 269.4 11.4
2002-03-21 09:38:47 51°11.09 2°43.386 272.7 14.1 269.6 11.6
2002-03-21 09:38:52 51°11.089 2°43.355 272.5 14.1 269.3 11.5
2002-03-21 09:38:56 51°11.089 2°43.33 272.2 14.1 269.5 11.6
2002-03-21 09:39:01 51°11.089 2°43.299 272.3 14.1 269.4 11.3
2002-03-21 09:39:06 51°11.089 2°43.268 272.8 14.1 269.4 11.5
2002-03-21 09:39:11 51°11.089 2°43.237 272.8 14.1 269.6 11.6
2002-03-21 09:39:16 51°11.088 2°43.206 272.7 14.1 269.5 11.6
2002-03-21 09:39:20 51°11.089 2°43.181 272.7 14.1 269.8 11.7
2002-03-21 09:39:26 51°11.088 2°43.144 272.3 14 269.4 11.6
2002-03-21 09:39:31 51°11.088 2°43.113 272.7 14.1 269.5 11.7
2002-03-21 09:39:36 51°11.088 2°43.082 272.5 14.1 269.2 11.7
2002-03-21 09:39:42 51°11.088 2°43.045 272.5 14 269.4 11.7
2002-03-21 09:39:46 51°11.087 2°43.02 272.7 14 269.1 11.7
2002-03-21 09:39:52 51°11.088 2°42.983 272.8 14 269.9 11.8
2002-03-21 09:39:56 51°11.087 2°42.958 272.8 14 269.4 11.4
2002-03-21 09:40:02 51°11.087 2°42.921 272.7 14.1 269.8 11.8
2002-03-21 09:40:07 51°11.087 2°42.89 273 14.1 269.4 11.8
2002-03-21 09:40:11 51°11.087 2°42.865 272.7 14 269.8 11.7
2002-03-21 09:40:16 51°11.087 2°42.834 273 14 269.8 11.8
2002-03-21 09:40:22 51°11.087 2°42.797 273 14.1 269.6 11.8
2002-03-21 09:40:26 51°11.087 2°42.772 273 14.1 270.3 11.8
2002-03-21 09:40:32 51°11.087 2°42.735 272.2 14.1 269.7 11.8
2002-03-21 09:40:36 51°11.087 2°42.71 273.5 14 270.1 11.8
2002-03-21 09:40:42 51°11.088 2°42.673 275.2 14 271.5 11.6
2002-03-21 09:40:46 51°11.089 2°42.649 276.8 14 273.1 11.7
2002-03-21 09:40:51 51°11.09 2°42.618 277.2 14 273.7 11.7
2002-03-21 09:40:56 51°11.092 2°42.587 276.7 14 273.8 11.7
2002-03-21 09:41:02 51°11.092 2°42.55 275.3 14 272.6 11.7
2002-03-21 09:41:06 51°11.093 2°42.525 273.8 14 271.7 11.7
2002-03-21 09:41:12 51°11.092 2°42.488 272.5 14 269.9 11.6
2002-03-21 09:41:16 51°11.092 2°42.463 271.2 14 269.3 11.6
2002-03-21 09:41:20 51°11.091 2°42.438 272 14.1 268.9 11.6
2002-03-21 09:41:26 51°11.092 2°42.401 273.5 14.1 269.8 11.6
2002-03-21 09:41:31 51°11.092 2°42.371 275 14 271.8 11.6
2002-03-21 09:41:36 51°11.092 2°42.34 274.7 14 271.5 11.5
2002-03-21 09:41:42 51°11.094 2°42.302 274.8 14.1 271.8 11.5
2002-03-21 09:41:46 51°11.094 2°42.278 274.7 14.1 271.6 11.5
2002-03-21 09:41:51 51°11.095 2°42.247 274.7 14 271.7 11.4
2002-03-21 09:41:56 51°11.095 2°42.216 274.5 14 271.7 11.3
2002-03-21 09:42:02 51°11.096 2°42.183 275.2 13.1 271.8 11.3
2002-03-21 09:42:06 51°11.096 2°42.162 275.3 12.4 271.9 11.3
2002-03-21 09:42:11 51°11.097 2°42.138 276.3 11.3 272.6 11.2
2002-03-21 09:42:17 51°11.098 2°42.111 277.3 10.6 273.1 11.3
2002-03-21 09:42:22 51°11.1 2°42.091 279 9.7 274.8 11.5
2002-03-21 09:42:26 51°11.101 2°42.075 280.8 9.1 276.3 11.4
2002-03-21 09:42:31 51°11.102 2°42.057 282.5 8.5 277.9 11.5
2002-03-21 09:42:36 51°11.104 2°42.04 285 8.1 279.2 11.5
2002-03-21 09:42:42 51°11.107 2°42.021 287 7.7 280.5 11.3
2002-03-21 09:42:46 51°11.109 2°42.01 289.3 7.1 282.8 11.3
2002-03-21 09:42:51 51°11.112 2°41.996 291.7 6.5 285.8 11.4
2002-03-21 09:42:57 51°11.115 2°41.982 294.3 6.1 288.2 11.5
2002-03-21 09:43:02 51°11.118 2°41.971 297.5 5.5 290.7 11.4
2002-03-21 09:43:06 51°11.119 2°41.963 300.7 5 291.5 11.3
2002-03-21 09:43:12 51°11.122 2°41.955 303 4.6 293.7 11.4
2002-03-21 09:43:16 51°11.124 2°41.949 302 3.9 294.6 11.3
2002-03-21 09:43:22 51°11.126 2°41.943 300.5 2.8 294.9 11.3
2002-03-21 09:43:27 51°11.127 2°41.94 298.7 2.3 294.6 11.4
2002-03-21 09:43:31 51°11.127 2°41.937 299.5 1.5 291.2 11.5
2002-03-21 09:43:36 51°11.127 2°41.937 300.5 0.9 293 11.5
2002-03-21 09:43:41 51°11.127 2°41.937 303.2 0.2 257.3 11.5
2002-03-21 09:43:46 51°11.127 2°41.936 305.5 0.1 226.9 11.5
2002-03-21 09:43:51 51°11.127 2°41.936 308.2 0.1 227.4 11.5
2002-03-21 09:43:56 51°11.127 2°41.936 310.7 0.1 261 11.5
2002-03-21 09:44:02 51°11.127 2°41.936 313.5 0.2 254.5 -999
2002-03-21 09:44:08 51°11.127 2°41.935 316.5 0.1 262.3 -999
2002-03-21 09:44:12 51°11.127 2°41.935 319.8 0.1 269.3 -999
2002-03-21 09:44:17 51°11.127 2°41.935 321.7 0.1 287 -999
2002-03-21 09:44:22 51°11.127 2°41.934 324.7 0.1 283.8 -999
2002-03-21 09:44:27 51°11.127 2°41.934 327.2 0.1 310.7 -999
2002-03-21 09:44:33 51°11.127 2°41.934 328.3 0.2 281.7 -999
2002-03-21 09:44:37 51°11.127 2°41.933 330.3 0.2 270 -999
2002-03-21 09:44:42 51°11.127 2°41.933 332 0.2 262.9 11.5
2002-03-21 09:44:46 51°11.127 2°41.932 333.2 0.2 267.2 11.6
2002-03-21 09:44:51 51°11.127 2°41.932 334 0.2 271.7 11.5
2002-03-21 09:44:56 51°11.127 2°41.931 335.5 0.2 281 11.5
2002-03-21 09:45:02 51°11.127 2°41.93 337.2 0.2 285.7 -999
2002-03-21 09:45:07 51°11.127 2°41.93 338.8 0.3 295.3 11.5
2002-03-21 09:45:12 51°11.128 2°41.929 340.3 0.4 302.8 -999
2002-03-21 09:45:16 51°11.128 2°41.928 341.3 0.4 306.1 11.4
2002-03-21 09:45:22 51°11.129 2°41.927 342 0.5 311.7 11.3
2002-03-21 09:45:26 51°11.129 2°41.926 343.2 0.5 313 11.3
2002-03-21 09:45:31 51°11.13 2°41.926 344.5 0.6 320.6 11.3
2002-03-21 09:45:36 51°11.13 2°41.925 344.8 0.6 320.5 11.3
2002-03-21 09:45:41 51°11.131 2°41.924 345.5 0.6 326.5 11.4
2002-03-21 09:45:46 51°11.132 2°41.924 346.8 0.6 333.6 11.2
2002-03-21 09:45:52 51°11.133 2°41.923 347.7 0.7 335.3 11
2002-03-21 09:45:56 51°11.134 2°41.923 348 0.7 339.5 11
2002-03-21 09:46:02 51°11.135 2°41.922 347.8 0.7 334 11.2
2002-03-21 09:46:06 51°11.136 2°41.921 348 0.7 335.8 11.3
2002-03-21 09:46:11 51°11.137 2°41.92 347.5 0.8 330.1 11.4
2002-03-21 09:46:16 51°11.138 2°41.919 347.3 0.9 331.7 11.4
2002-03-21 09:46:22 51°11.139 2°41.918 346.2 0.9 330.2 11.4
2002-03-21 09:46:26 51°11.14 2°41.917 345.3 1 331.7 11.4
2002-03-21 09:46:31 51°11.141 2°41.916 345.2 1 332.9 11.4
2002-03-21 09:46:36 51°11.143 2°41.915 344.7 1 331.7 11.4
2002-03-21 09:46:41 51°11.144 2°41.914 344.2 1.1 331.1 11.3
2002-03-21 09:46:47 51°11.146 2°41.912 343.7 1.1 330.1 11.3
2002-03-21 09:46:52 51°11.147 2°41.911 343.2 1.2 328.2 11.2
2002-03-21 09:46:56 51°11.148 2°41.91 342.2 1.2 328.5 11.3
2002-03-21 09:47:02 51°11.15 2°41.908 341.8 1.3 328 11.4
2002-03-21 09:47:07 51°11.152 2°41.907 341.8 1.3 327.6 11.5
2002-03-21 09:47:12 51°11.154 2°41.905 341.3 1.4 327.7 11.3
2002-03-21 09:47:16 51°11.155 2°41.904 340.3 1.4 329.1 11.3
2002-03-21 09:47:22 51°11.157 2°41.902 340.3 1.4 328.8 11.3
2002-03-21 09:47:26 51°11.158 2°41.901 340.8 1.4 331.2 11.2
2002-03-21 09:47:31 51°11.16 2°41.899 342.2 1.3 331.3 11.3
2002-03-21 09:47:36 51°11.161 2°41.898 344 1.3 331.3 11.2
2002-03-21 09:47:42 51°11.163 2°41.897 345.8 1.3 335.9 11.1
2002-03-21 09:47:46 51°11.164 2°41.896 347.3 1.2 336.4 11
2002-03-21 09:47:52 51°11.166 2°41.895 349.3 1.2 337.8 11
2002-03-21 09:47:56 51°11.168 2°41.894 350.7 1.2 336.8 11.1
2002-03-21 09:48:02 51°11.169 2°41.892 352.2 1.3 336.5 11.2
2002-03-21 09:48:06 51°11.171 2°41.892 353.3 1.3 337.9 11.2
2002-03-21 09:48:11 51°11.172 2°41.891 354.2 1.3 339.2 11.3
2002-03-21 09:48:16 51°11.174 2°41.889 354.8 1.3 340.1 11.3
2002-03-21 09:48:21 51°11.176 2°41.889 356 1.3 344.7 11.2
2002-03-21 09:48:26 51°11.177 2°41.888 357.7 1.3 346.1 10.9
2002-03-21 09:48:32 51°11.179 2°41.887 358.7 1.3 344.5 11.1
2002-03-21 09:48:37 51°11.181 2°41.886 359.7 1.3 342.5 11.2
2002-03-21 09:48:42 51°11.183 2°41.886 0.3 1.3 345.1 11.3
2002-03-21 09:48:46 51°11.184 2°41.885 1 1.3 347.9 11.3
2002-03-21 09:48:52 51°11.186 2°41.885 2 1.3 348.3 11.4
2002-03-21 09:48:56 51°11.188 2°41.884 2.8 1.3 348.6 11.4
2002-03-21 09:49:00 51°11.189 2°41.884 3.3 1.4 351.1 11.3
2002-03-21 09:49:06 51°11.192 2°41.883 4 1.4 349.4 11.3
2002-03-21 09:49:11 51°11.193 2°41.883 5.5 1.3 350.5 11.3
2002-03-21 09:49:16 51°11.195 2°41.882 6.3 1.3 352.1 11.3
2002-03-21 09:49:22 51°11.198 2°41.882 7 1.3 352.1 11.3
2002-03-21 09:49:26 51°11.199 2°41.882 8 1.3 353.8 11.3
2002-03-21 09:49:31 51°11.201 2°41.882 8.5 1.4 351.9 11.4
2002-03-21 09:49:36 51°11.203 2°41.882 9.5 1.4 351.9 11.1
2002-03-21 09:49:42 51°11.205 2°41.881 10.2 1.4 351.2 11.4
2002-03-21 09:49:46 51°11.206 2°41.881 11.2 1.4 357.3 11.3
2002-03-21 09:49:51 51°11.208 2°41.881 11.7 1.4 358.4 11.2
2002-03-21 09:49:56 51°11.21 2°41.881 13 1.3 358.6 11.3
2002-03-21 09:50:02 51°11.213 2°41.881 14.7 1.4 1.4 11.4
2002-03-21 09:50:06 51°11.214 2°41.881 15.3 1.4 358.9 11.4
2002-03-21 09:50:11 51°11.216 2°41.881 15.7 1.4 2.2 11.5
2002-03-21 09:50:16 51°11.218 2°41.881 16.3 1.4 2.1 11.5
2002-03-21 09:50:22 51°11.22 2°41.881 17.3 1.3 5.1 11.4
2002-03-21 09:50:26 51°11.221 2°41.88 17.8 1.4 2.7 11.3
2002-03-21 09:50:32 51°11.223 2°41.881 18.8 1.4 4.7 11.4
2002-03-21 09:50:36 51°11.225 2°41.88 20 1.4 4.5 11.4
2002-03-21 09:50:42 51°11.227 2°41.881 21 1.4 7.1 11.3
2002-03-21 09:50:46 51°11.229 2°41.882 22.2 1.4 8.6 11.3
2002-03-21 09:50:52 51°11.231 2°41.882 22.7 1.4 8.7 11.2
2002-03-21 09:50:57 51°11.232 2°41.883 24 1.3 11.5 11.1
2002-03-21 09:51:01 51°11.234 2°41.884 24.8 1.4 11.8 11.2
2002-03-21 09:51:06 51°11.236 2°41.885 26 1.4 14.8 11.2
2002-03-21 09:51:11 51°11.238 2°41.886 26.5 1.4 15.1 11.2
2002-03-21 09:51:16 51°11.24 2°41.887 27.2 1.3 18.8 11.2
2002-03-21 09:51:21 51°11.242 2°41.887 28.2 1.4 14.7 11.2
2002-03-21 09:51:26 51°11.243 2°41.889 28.8 1.4 18 11.3
2002-03-21 09:51:31 51°11.245 2°41.889 29.3 1.4 16.4 11.3
2002-03-21 09:51:36 51°11.247 2°41.89 31 1.4 17.7 11.3
2002-03-21 09:51:41 51°11.249 2°41.891 31.8 1.4 17.7 11.2
2002-03-21 09:51:46 51°11.25 2°41.893 33.3 1.4 21.7 11.1
2002-03-21 09:51:51 51°11.252 2°41.894 34.2 1.4 21.4 11.3
2002-03-21 09:51:56 51°11.254 2°41.895 35.3 1.4 24.6 11.1
2002-03-21 09:52:02 51°11.256 2°41.897 36 1.4 24.7 11.2
2002-03-21 09:52:06 51°11.257 2°41.898 37 1.4 25.5 11.3
2002-03-21 09:52:12 51°11.26 2°41.899 37.5 1.3 23.2 11.2
2002-03-21 09:52:16 51°11.261 2°41.9 37.3 1.3 26.8 11.2
2002-03-21 09:52:20 51°11.262 2°41.901 37.3 1.2 25.8 11.2
2002-03-21 09:52:26 51°11.264 2°41.903 37.7 1.2 25.5 11.2
2002-03-21 09:52:32 51°11.266 2°41.904 37.5 1.2 24 11.1
2002-03-21 09:52:36 51°11.267 2°41.905 36.7 1.2 25.2 11.2
2002-03-21 09:52:42 51°11.269 2°41.906 36 1.2 23.5 11.2
2002-03-21 09:52:46 51°11.27 2°41.907 35.3 1.2 27.3 11.1
2002-03-21 09:52:52 51°11.271 2°41.908 35 1.1 22.2 11.1
2002-03-21 09:52:56 51°11.273 2°41.909 34.7 1.1 24.8 11
2002-03-21 09:53:02 51°11.274 2°41.91 33.5 1.1 19.4 11.2
2002-03-21 09:53:06 51°11.276 2°41.911 33.3 1.2 25.2 11.1
2002-03-21 09:53:12 51°11.278 2°41.913 34.2 1.3 24.1 11
2002-03-21 09:53:16 51°11.28 2°41.915 36.3 1.6 28.9 11.1
2002-03-21 09:53:22 51°11.283 2°41.917 40.5 2 31.6 11.1
2002-03-21 09:53:27 51°11.285 2°41.921 45.5 2.2 38.2 11.2
2002-03-21 09:53:31 51°11.287 2°41.924 51 2.4 44 11.2
2002-03-21 09:53:36 51°11.289 2°41.929 57.2 2.5 48.9 11.1
2002-03-21 09:53:42 51°11.291 2°41.935 63.7 2.7 54.6 11.2
2002-03-21 09:53:46 51°11.292 2°41.94 70.3 2.8 63.4 11.2
2002-03-21 09:53:51 51°11.294 2°41.946 77 2.9 73.3 11.1
2002-03-21 09:53:57 51°11.294 2°41.954 83.5 3 78.8 11.1
2002-03-21 09:54:02 51°11.294 2°41.961 90 3.1 89.6 11.2
2002-03-21 09:54:06 51°11.293 2°41.967 96.8 3.3 96.5 11.1
2002-03-21 09:54:11 51°11.291 2°41.976 105.3 3.9 106.1 11.2
2002-03-21 09:54:16 51°11.288 2°41.985 115.2 3.9 106.1 11.2
2002-03-21 09:54:22 51°11.283 2°41.995 124.7 4.8 126.4 11.2
2002-03-21 09:54:26 51°11.278 2°42.001 134.8 5.1 135.1 11.2
2002-03-21 09:54:32 51°11.269 2°42.009 145 5.8 146.9 11.2
2002-03-21 09:54:37 51°11.26 2°42.013 153.5 6 150.8 11.2
2002-03-21 09:54:42 51°11.251 2°42.016 162.8 6.5 161.8 11.1
2002-03-21 09:54:46 51°11.243 2°42.016 172.5 6.9 172.8 11
2002-03-21 09:54:52 51°11.231 2°42.013 181.2 7.4 182.1 11
2002-03-21 09:54:57 51°11.22 2°42.008 190.3 7.6 191.1 11
2002-03-21 09:55:02 51°11.21 2°42 199.3 8 200.9 11
2002-03-21 09:55:06 51°11.202 2°41.992 207.7 8.2 207.8 11.1
2002-03-21 09:55:11 51°11.193 2°41.98 216.2 8.5 216.2 11
2002-03-21 09:55:16 51°11.185 2°41.966 224.5 8.7 222.6 11
2002-03-21 09:55:22 51°11.176 2°41.946 232.7 9 231.9 11.1
2002-03-21 09:55:26 51°11.172 2°41.931 241.3 9.1 238.6 11.1
2002-03-21 09:55:32 51°11.166 2°41.908 250.2 9.2 244.6 11.1
2002-03-21 09:55:36 51°11.164 2°41.891 257.7 9.5 252.5 11.2
2002-03-21 09:55:42 51°11.16 2°41.866 261.7 9.7 256.6 11.1
2002-03-21 09:55:46 51°11.158 2°41.85 258.7 9.7 256.8 11.2
2002-03-21 09:55:52 51°11.151 2°41.826 251 9.6 250.2 11.1
2002-03-21 09:55:56 51°11.146 2°41.812 241.5 9.6 243.9 11.1
2002-03-21 09:56:02 51°11.136 2°41.791 233 9.7 234.8 11.1
2002-03-21 09:56:06 51°11.128 2°41.779 228.2 9.7 232.2 11.1
2002-03-21 09:56:12 51°11.116 2°41.76 225 10 225.6 11.2
2002-03-21 09:56:16 51°11.108 2°41.748 222.3 10.1 223.3 11.2
2002-03-21 09:56:20 51°11.099 2°41.736 219.5 10.3 220.5 11.1
2002-03-21 09:56:26 51°11.085 2°41.72 217.7 10.4 218.3 11.1
2002-03-21 09:56:31 51°11.074 2°41.706 215.2 10.4 216.1 11.2
2002-03-21 09:56:36 51°11.061 2°41.693 213.2 10.5 214.5 11.2
2002-03-21 09:56:41 51°11.049 2°41.68 212.7 10.6 213.8 11.2
2002-03-21 09:56:46 51°11.036 2°41.668 210.5 10.6 212.4 11.3
2002-03-21 09:56:51 51°11.024 2°41.656 208.7 10.7 211.1 11.2
2002-03-21 09:56:56 51°11.01 2°41.644 208 10.8 209.5 11.3
2002-03-21 09:57:01 51°10.997 2°41.633 206 10.9 208 11.4
2002-03-21 09:57:06 51°10.983 2°41.623 205 10.8 206.7 11.4
2002-03-21 09:57:11 51°10.97 2°41.612 204 11.1 205.5 11.1
2002-03-21 09:57:16 51°10.955 2°41.601 203.2 11.4 205.1 11.4
2002-03-21 09:57:22 51°10.936 2°41.588 203 12 204.6 11.4
2002-03-21 09:57:26 51°10.923 2°41.579 202.8 12.5 204.2 11.3
2002-03-21 09:57:31 51°10.907 2°41.567 203 12.9 204.3 11.4
2002-03-21 09:57:36 51°10.891 2°41.556 202.5 12.9 204.5 11.3
2002-03-21 09:57:42 51°10.871 2°41.541 202.7 12.9 204 11.4
2002-03-21 09:57:46 51°10.857 2°41.532 202.5 13.4 204 11.3
2002-03-21 09:57:51 51°10.839 2°41.52 201.2 13.5 203.1 11.4
2002-03-21 09:57:56 51°10.822 2°41.51 199.7 13.4 201.6 11.5
2002-03-21 09:58:02 51°10.801 2°41.497 199.3 13.5 201 11.4
2002-03-21 09:58:06 51°10.787 2°41.487 200.7 13.7 201.9 11.6
2002-03-21 09:58:11 51°10.77 2°41.475 202.5 13.7 204 11.5
2002-03-21 09:58:16 51°10.753 2°41.463 202.3 13.6 204.3 11.6
2002-03-21 09:58:22 51°10.732 2°41.448 201 13.5 203.3 11.6
2002-03-21 09:58:26 51°10.717 2°41.44 199.8 13.7 201.7 11.5
2002-03-21 09:58:32 51°10.696 2°41.427 200.2 13.9 200.8 11.6
2002-03-21 09:58:37 51°10.679 2°41.416 200.5 13.7 201.2 11.6
2002-03-21 09:58:41 51°10.665 2°41.407 200.7 13.3 201.7 11.4
2002-03-21 09:58:46 51°10.647 2°41.397 199.5 13.4 201 11.4
2002-03-21 09:58:51 51°10.629 2°41.387 197.7 13.8 199.4 11.3
2002-03-21 09:58:56 51°10.611 2°41.378 196.7 13.9 198.1 11.1
2002-03-21 09:59:02 51°10.589 2°41.368 194.7 13.7 197 11.1
2002-03-21 09:59:06 51°10.575 2°41.363 193.7 13.3 195 11.1
2002-03-21 09:59:12 51°10.554 2°41.355 192.2 13.2 193.9 11
2002-03-21 09:59:16 51°10.539 2°41.35 191.5 13.4 192.7 10.9
2002-03-21 09:59:22 51°10.516 2°41.342 191.2 13.8 192.2 10.6
2002-03-21 09:59:26 51°10.501 2°41.337 191.7 13.8 192.2 10.8
2002-03-21 09:59:32 51°10.48 2°41.329 191.3 13.5 192.3 10.8
2002-03-21 09:59:37 51°10.461 2°41.323 190.7 13.3 192.1 10.6
2002-03-21 09:59:42 51°10.443 2°41.317 190.2 13.3 191.7 10.6
2002-03-21 09:59:47 51°10.425 2°41.311 190.2 13.4 191.3 10.4
2002-03-21 09:59:51 51°10.41 2°41.306 190.7 13.6 191.6 10.2
2002-03-21 09:59:56 51°10.392 2°41.3 191 13.6 191.7 10.3
2002-03-21 10:00:00 51°10.377 2°41.295 191 13.4 191.9 10.1
2002-03-21 10:00:06 51°10.356 2°41.289 190 13.3 191.2 9.9
2002-03-21 10:00:11 51°10.337 2°41.283 189.3 13.4 191.1 9.7
2002-03-21 10:00:16 51°10.319 2°41.277 190.2 13.5 191.4 9.7
2002-03-21 10:00:21 51°10.301 2°41.269 192.2 13.5 193.4 9.6
2002-03-21 10:00:26 51°10.283 2°41.261 194.3 13.5 194.7 9.4
2002-03-21 10:00:32 51°10.262 2°41.249 197.2 13.5 197.5 9.3
2002-03-21 10:00:37 51°10.244 2°41.239 198.2 13.4 199.2 9.2
2002-03-21 10:00:42 51°10.227 2°41.23 198 13.3 199.3 9.2
2002-03-21 10:00:46 51°10.213 2°41.223 195.8 13.3 198.4 9
2002-03-21 10:00:52 51°10.191 2°41.213 194.7 13.4 196.3 8.9
2002-03-21 10:00:56 51°10.176 2°41.208 193.5 13.6 195.2 8.7
2002-03-21 10:01:01 51°10.158 2°41.2 193.7 13.6 195 8.8
2002-03-21 10:01:06 51°10.141 2°41.192 193.8 13.3 195.4 8.7
2002-03-21 10:01:11 51°10.123 2°41.183 195.5 13.3 196.6 8.6
2002-03-21 10:01:16 51°10.106 2°41.174 196.3 13.3 197.8 8.5
2002-03-21 10:01:20 51°10.092 2°41.166 196.8 13.2 198.9 8.4
2002-03-21 10:01:26 51°10.071 2°41.155 197 13.2 198.9 8.2
2002-03-21 10:01:31 51°10.053 2°41.146 197.7 13.4 199.1 8.1
2002-03-21 10:01:36 51°10.035 2°41.134 199.3 13.6 200.5 8.2
2002-03-21 10:01:40 51°10.022 2°41.124 202.8 13.3 203.8 8.1
2002-03-21 10:01:46 51°10.004 2°41.109 206.7 12.7 206.6 8
2002-03-21 10:01:51 51°9.991 2°41.095 210.7 11.8 211.3 7.8
2002-03-21 10:01:56 51°9.979 2°41.081 215.2 11.3 215 8
2002-03-21 10:02:02 51°9.966 2°41.062 221.2 10.5 220.4 8
2002-03-21 10:02:06 51°9.96 2°41.05 225.8 9.5 226.4 8.2
2002-03-21 10:02:11 51°9.952 2°41.036 230 8.8 229.5 8.3
2002-03-21 10:02:16 51°9.946 2°41.022 234.3 8.2 233.1 8.3
2002-03-21 10:02:22 51°9.939 2°41.006 237 7.5 235.6 8.3
2002-03-21 10:02:26 51°9.936 2°40.995 238.8 7.1 238.5 8.3
2002-03-21 10:02:31 51°9.931 2°40.984 242.8 6.3 240.6 8.2
2002-03-21 10:02:36 51°9.929 2°40.973 246.7 5.6 243.8 8.2
2002-03-21 10:02:42 51°9.927 2°40.963 252.7 4.5 249.6 8.3
2002-03-21 10:02:46 51°9.925 2°40.958 258.2 3.8 252.6 8.3
2002-03-21 10:02:50 51°9.925 2°40.953 264.2 2.7 257 8.3
2002-03-21 10:02:56 51°9.924 2°40.949 269.8 1.9 257.4 8.3
2002-03-21 10:03:01 51°9.924 2°40.947 275.2 1.1 255.6 8.3
2002-03-21 10:03:07 51°9.924 2°40.945 277.8 0.9 255.5 8.4
2002-03-21 10:03:12 51°9.924 2°40.943 279.5 0.8 258.8 8.4
2002-03-21 10:03:17 51°9.923 2°40.942 281.5 0.8 257.6 8.4
2002-03-21 10:03:22 51°9.924 2°40.94 283.5 0.7 267.6 8.4
2002-03-21 10:03:26 51°9.923 2°40.939 285.8 0.7 264.9 8.4
2002-03-21 10:03:31 51°9.924 2°40.938 288.2 0.6 279 8.3
2002-03-21 10:03:36 51°9.923 2°40.937 291.5 0.6 268.2 -999
2002-03-21 10:03:42 51°9.924 2°40.935 294.8 0.6 277.8 8.3
2002-03-21 10:03:47 51°9.924 2°40.934 297.8 0.6 274 -999
2002-03-21 10:03:53 51°9.924 2°40.932 301.2 0.6 279.8 -999
2002-03-21 10:03:57 51°9.924 2°40.93 304.3 0.8 284.1 -999
2002-03-21 10:04:02 51°9.925 2°40.928 307.8 1 293.8 -999
2002-03-21 10:04:07 51°9.926 2°40.925 310.8 1.3 295 -999
2002-03-21 10:04:12 51°9.927 2°40.923 314.7 1.4 300.8 8.3
2002-03-21 10:04:16 51°9.928 2°40.92 317.2 1.6 300.4 8
2002-03-21 10:04:22 51°9.93 2°40.916 320.2 1.7 306.8 8.3
2002-03-21 10:04:26 51°9.931 2°40.913 323.3 1.9 308.8 8.3
2002-03-21 10:04:32 51°9.934 2°40.909 325.8 2 312.8 8.3
2002-03-21 10:04:36 51°9.936 2°40.907 328.2 2.3 315.1 8.4
2002-03-21 10:04:42 51°9.939 2°40.902 331.2 2.5 319.4 8.4
2002-03-21 10:04:47 51°9.942 2°40.899 334.2 2.7 321.6 8.4
2002-03-21 10:04:52 51°9.946 2°40.895 337.2 2.9 324.4 8.4
2002-03-21 10:04:56 51°9.949 2°40.892 339.5 3 326.6 8.4
2002-03-21 10:05:01 51°9.953 2°40.888 341.2 3.2 329.3 8.4
2002-03-21 10:05:06 51°9.957 2°40.885 342.8 3.4 331.1 8.5
2002-03-21 10:05:11 51°9.961 2°40.881 345 3.5 333.8 8.4
2002-03-21 10:05:16 51°9.966 2°40.878 346.7 3.7 335.8 8.5
2002-03-21 10:05:21 51°9.971 2°40.875 348.8 3.8 338.4 8.6
2002-03-21 10:05:26 51°9.976 2°40.872 350.5 3.9 339.8 8.6
2002-03-21 10:05:31 51°9.982 2°40.87 352.5 4 342 8.6
2002-03-21 10:05:35 51°9.986 2°40.868 354 4.1 343 8.6
2002-03-21 10:05:41 51°9.993 2°40.865 356.3 4.1 345.9 8.6
2002-03-21 10:05:46 51°9.998 2°40.863 357.8 4.1 346.4 8.7
2002-03-21 10:05:52 51°10.005 2°40.861 0.3 4 349.2 8.7
2002-03-21 10:05:56 51°10.009 2°40.86 2.3 4 351.2 8.8
2002-03-21 10:06:00 51°10.014 2°40.859 4.3 4 353.4 8.8
2002-03-21 10:06:06 51°10.02 2°40.859 6.3 4 354.9 8.9
2002-03-21 10:06:11 51°10.026 2°40.858 8.2 4 357.5 8.9
2002-03-21 10:06:16 51°10.031 2°40.858 10 4 359 8.9
2002-03-21 10:06:20 51°10.036 2°40.859 12.7 4 1.5 9
2002-03-21 10:06:26 51°10.042 2°40.859 14 4 2.6 8.9
2002-03-21 10:06:31 51°10.047 2°40.86 16.2 3.9 5.5 9
2002-03-21 10:06:36 51°10.053 2°40.861 17.3 3.9 6.4 9
2002-03-21 10:06:41 51°10.058 2°40.863 19.5 3.9 9 9.1
2002-03-21 10:06:46 51°10.064 2°40.865 20.5 3.9 10.4 9.2
2002-03-21 10:06:51 51°10.068 2°40.867 23.3 3.9 13.1 9.1
2002-03-21 10:06:56 51°10.074 2°40.869 25.5 3.9 15.3 9.1
2002-03-21 10:07:02 51°10.08 2°40.873 28.3 3.8 18.8 9.1
2002-03-21 10:07:06 51°10.083 2°40.875 30.5 3.8 19.5 9.1
2002-03-21 10:07:11 51°10.088 2°40.879 33.2 3.8 22.7 9.2
2002-03-21 10:07:17 51°10.094 2°40.883 35.5 3.8 24.9 8.9
2002-03-21 10:07:22 51°10.098 2°40.887 38 3.8 27.6 9.3
2002-03-21 10:07:26 51°10.102 2°40.891 40 3.7 30.1 9.2
2002-03-21 10:07:31 51°10.106 2°40.895 42.2 3.7 33.2 9.3
2002-03-21 10:07:36 51°10.11 2°40.9 44.5 3.7 35.4 9.2
2002-03-21 10:07:42 51°10.115 2°40.906 47 3.7 38.4 9.4
2002-03-21 10:07:46 51°10.118 2°40.91 49 3.6 40.4 9.3
2002-03-21 10:07:52 51°10.123 2°40.917 51.5 3.6 42.8 9.2
2002-03-21 10:07:56 51°10.125 2°40.922 53.2 3.6 45 9.2
2002-03-21 10:08:02 51°10.129 2°40.929 55.8 3.6 48.5 9.3
2002-03-21 10:08:06 51°10.132 2°40.934 57.5 3.5 50.1 9.3
2002-03-21 10:08:11 51°10.135 2°40.94 58.8 3.6 51.7 9.3
2002-03-21 10:08:16 51°10.137 2°40.946 60.7 3.5 53.8 9.4
2002-03-21 10:08:22 51°10.141 2°40.954 62.3 3.5 55.1 9.5
2002-03-21 10:08:26 51°10.143 2°40.959 63.8 3.5 57.1 9
2002-03-21 10:08:30 51°10.145 2°40.964 65.5 3.5 59.9 9.4
2002-03-21 10:08:36 51°10.148 2°40.972 67 3.5 61.4 9.4
2002-03-21 10:08:40 51°10.149 2°40.978 69 3.5 64.2 9.4
2002-03-21 10:08:46 51°10.152 2°40.986 70.5 3.5 65.3 9.3
2002-03-21 10:08:51 51°10.153 2°40.994 72.7 3.5 68.6 9.4
2002-03-21 10:08:55 51°10.155 2°41 74.7 3.5 69.9 9.4
2002-03-21 10:09:01 51°10.156 2°41.008 76.3 3.5 72.4 9.4
2002-03-21 10:09:06 51°10.158 2°41.016 77.5 3.5 73.1 9.4
2002-03-21 10:09:11 51°10.159 2°41.023 79.2 3.5 75.1 9.2
2002-03-21 10:09:16 51°10.16 2°41.031 80.7 3.5 77.3 9.3
2002-03-21 10:09:21 51°10.161 2°41.039 82 3.5 79.4 9.4
2002-03-21 10:09:26 51°10.162 2°41.046 83.8 3.5 80.6 9.3
2002-03-21 10:09:32 51°10.162 2°41.056 85.8 3.5 83.3 9.3
2002-03-21 10:09:37 51°10.163 2°41.064 87.8 3.5 85.4 9.3
2002-03-21 10:09:42 51°10.162 2°41.071 89.7 3.5 88.4 9.3
2002-03-21 10:09:46 51°10.162 2°41.078 92 3.5 90.3 9.3
2002-03-21 10:09:51 51°10.162 2°41.085 94.7 3.5 93.4 9.3
2002-03-21 10:09:55 51°10.161 2°41.091 96.5 3.5 96 9.2
2002-03-21 10:10:01 51°10.161 2°41.101 99 3.5 98.5 9.1
2002-03-21 10:10:07 51°10.159 2°41.11 101 3.5 100.7 9.1
2002-03-21 10:10:12 51°10.158 2°41.117 103.5 3.5 104.1 9.2
2002-03-21 10:10:16 51°10.157 2°41.123 105.7 3.4 106.6 9.1
2002-03-21 10:10:21 51°10.155 2°41.13 107.8 3.3 109.5 9.1
2002-03-21 10:10:26 51°10.154 2°41.136 109.8 3.2 111.3 9.1
2002-03-21 10:10:31 51°10.152 2°41.142 112.2 3.1 114.6 9.1
2002-03-21 10:10:36 51°10.15 2°41.148 113.8 3 115.1 9
2002-03-21 10:10:42 51°10.148 2°41.155 115.5 2.9 117.6 9
2002-03-21 10:10:47 51°10.146 2°41.16 116.7 2.8 118.2 9
2002-03-21 10:10:52 51°10.144 2°41.165 118 2.7 120.3 9
2002-03-21 10:10:56 51°10.143 2°41.169 119.7 2.7 121.4 8.9
2002-03-21 10:11:01 51°10.141 2°41.174 120.5 2.6 123.2 8.9
2002-03-21 10:11:06 51°10.139 2°41.179 122.3 2.6 124.7 8.9
2002-03-21 10:11:11 51°10.137 2°41.183 124 2.5 126.8 8.9
2002-03-21 10:11:16 51°10.135 2°41.187 125.3 2.4 128.3 8.9
2002-03-21 10:11:21 51°10.133 2°41.191 126.7 2.4 130.8 8.9
2002-03-21 10:11:27 51°10.13 2°41.196 128.2 2.3 131.4 8.8
2002-03-21 10:11:32 51°10.128 2°41.199 128.8 2.3 132.8 8.8
2002-03-21 10:11:36 51°10.126 2°41.202 130.5 2.3 135.3 8.8
2002-03-21 10:11:40 51°10.124 2°41.205 132.2 2.2 136.7 8.8
2002-03-21 10:11:46 51°10.121 2°41.209 133 2.3 138.4 8.8
2002-03-21 10:11:51 51°10.119 2°41.212 134.3 2.2 141.1 8.7
2002-03-21 10:11:55 51°10.117 2°41.214 135.3 2.2 142.3 8.7
2002-03-21 10:12:02 51°10.114 2°41.218 136.5 2.2 143.4 8.7
2002-03-21 10:12:06 51°10.112 2°41.22 138 2.1 144.8 8.5
2002-03-21 10:12:11 51°10.109 2°41.223 139.2 2.1 146.1 8.6
2002-03-21 10:12:16 51°10.107 2°41.225 139.8 2.1 147.1 8.6
2002-03-21 10:12:22 51°10.104 2°41.228 141 2.1 149.2 8.6
2002-03-21 10:12:26 51°10.102 2°41.23 142.3 2.1 150.3 8.6
2002-03-21 10:12:32 51°10.099 2°41.232 143.3 2.1 151.6 8.5
2002-03-21 10:12:36 51°10.096 2°41.234 144.3 2.1 154.1 8.5
2002-03-21 10:12:42 51°10.093 2°41.236 146 2.1 153.5 8.5
2002-03-21 10:12:46 51°10.091 2°41.238 147.2 2.1 156.2 8.6
2002-03-21 10:12:51 51°10.089 2°41.24 147.7 2.1 155.6 8.5
2002-03-21 10:12:56 51°10.086 2°41.241 148.8 2 157.6 8.5
2002-03-21 10:13:02 51°10.083 2°41.243 149.8 2.1 158.3 8.5
2002-03-21 10:13:06 51°10.081 2°41.244 151 2.1 159.2 8.5
2002-03-21 10:13:11 51°10.078 2°41.246 151.7 2 160 8.5
2002-03-21 10:13:16 51°10.075 2°41.247 153 2 161.2 8.4
2002-03-21 10:13:21 51°10.073 2°41.248 153.8 2 163 8.4
2002-03-21 10:13:26 51°10.07 2°41.25 154.7 2 163.2 8.4
2002-03-21 10:13:32 51°10.067 2°41.251 155.7 2 165 8.4
2002-03-21 10:13:36 51°10.065 2°41.252 156.8 2 165.2 8.4
2002-03-21 10:13:42 51°10.061 2°41.253 157.8 2 167.3 8.4
2002-03-21 10:13:46 51°10.059 2°41.253 158.5 2 167.6 8.3
2002-03-21 10:13:52 51°10.056 2°41.254 160.2 2 171.2 8.3
2002-03-21 10:13:57 51°10.053 2°41.255 161.5 2 170.2 8.3
2002-03-21 10:14:02 51°10.05 2°41.255 162.8 2 172.8 8.3
2002-03-21 10:14:06 51°10.048 2°41.256 164.3 2 172.4 8.3
2002-03-21 10:14:12 51°10.045 2°41.256 165.8 2 177.1 8.3
2002-03-21 10:14:17 51°10.042 2°41.257 167 2 175.2 8.2
2002-03-21 10:14:22 51°10.039 2°41.256 168.5 2 180.4 8.2
2002-03-21 10:14:26 51°10.037 2°41.257 170.3 2.1 180.2 8.2
2002-03-21 10:14:32 51°10.034 2°41.256 172.2 2 182.8 8.3
2002-03-21 10:14:36 51°10.032 2°41.256 174.3 2 182.4 8.3
2002-03-21 10:14:42 51°10.028 2°41.255 176.7 2 186.8 8.2
2002-03-21 10:14:46 51°10.026 2°41.255 179 2 187 8.2
2002-03-21 10:14:52 51°10.023 2°41.254 180.7 1.9 189.9 8.1
2002-03-21 10:14:56 51°10.021 2°41.253 182.3 1.9 189.8 8.2
2002-03-21 10:15:01 51°10.018 2°41.252 184.3 1.9 192.8 8.2
2002-03-21 10:15:06 51°10.016 2°41.251 186.2 1.9 194.9 8.2
2002-03-21 10:15:11 51°10.013 2°41.25 188.5 1.9 197 8.2
2002-03-21 10:15:16 51°10.011 2°41.248 190 1.9 198.4 8.1
2002-03-21 10:15:22 51°10.008 2°41.246 192.2 1.9 198.8 8
2002-03-21 10:15:26 51°10.006 2°41.245 193.8 1.9 198.6 8
2002-03-21 10:15:31 51°10.003 2°41.243 196 2 203.2 8
2002-03-21 10:15:36 51°10.001 2°41.242 198.3 2 203.2 8
2002-03-21 10:15:42 51°9.998 2°41.239 200.5 2 207.7 8.1
2002-03-21 10:15:46 51°9.996 2°41.238 203.2 2 208.2 8.2
2002-03-21 10:15:51 51°9.993 2°41.235 205.7 2.1 212.5 8.2
2002-03-21 10:15:56 51°9.991 2°41.233 208.8 2.1 211.3 8.2
2002-03-21 10:16:02 51°9.988 2°41.229 210.8 2.1 217.1 8.2
2002-03-21 10:16:06 51°9.986 2°41.227 213.7 2.1 216.8 8.2
2002-03-21 10:16:11 51°9.984 2°41.223 216.5 2.2 221.6 8.1
2002-03-21 10:16:16 51°9.982 2°41.22 219.3 2.1 221 8.1
2002-03-21 10:16:21 51°9.98 2°41.217 221.8 2.1 224.6 8.1
2002-03-21 10:16:26 51°9.977 2°41.214 224 2.1 224.2 8
2002-03-21 10:16:31 51°9.975 2°41.21 226.3 2.1 226.4 8
2002-03-21 10:16:36 51°9.973 2°41.207 228.7 2.2 226.2 8.1
2002-03-21 10:16:40 51°9.972 2°41.204 230 2.2 231 8.1
2002-03-21 10:16:46 51°9.97 2°41.199 232 2.2 230 8
2002-03-21 10:16:51 51°9.968 2°41.195 232.8 2.2 231.8 8
2002-03-21 10:16:56 51°9.966 2°41.191 233.5 2.2 232.4 8
2002-03-21 10:17:02 51°9.964 2°41.186 234.8 2.3 235.4 8
2002-03-21 10:17:06 51°9.963 2°41.183 235.3 2.3 235.5 8.1
2002-03-21 10:17:11 51°9.961 2°41.178 235.2 2.3 237.3 8.1
2002-03-21 10:17:17 51°9.959 2°41.173 235.7 2.4 237.6 8.1
2002-03-21 10:17:22 51°9.957 2°41.169 235.3 2.4 237.1 8.1
2002-03-21 10:17:26 51°9.956 2°41.165 234.7 2.4 237.3 8
2002-03-21 10:17:31 51°9.954 2°41.161 234.5 2.4 236.4 8
2002-03-21 10:17:36 51°9.952 2°41.157 233.3 2.4 235.1 8.1
2002-03-21 10:17:41 51°9.95 2°41.152 232.3 2.4 235.4 8
2002-03-21 10:17:47 51°9.948 2°41.147 232.3 2.4 235.4 8
2002-03-21 10:17:52 51°9.946 2°41.142 231.8 2.4 235.4 8
2002-03-21 10:17:56 51°9.945 2°41.139 230.8 2.4 233.7 8
2002-03-21 10:18:02 51°9.942 2°41.133 230.2 2.4 234.1 8
2002-03-21 10:18:06 51°9.94 2°41.13 229.2 2.4 230.5 8
2002-03-21 10:18:12 51°9.938 2°41.125 228.2 2.4 233.6 8
2002-03-21 10:18:16 51°9.936 2°41.122 228 2.4 229.7 8
2002-03-21 10:18:22 51°9.934 2°41.117 227 2.4 231.4 8
2002-03-21 10:18:27 51°9.932 2°41.113 226.7 2.4 230 8
2002-03-21 10:18:32 51°9.929 2°41.109 226 2.5 231.4 8
2002-03-21 10:18:36 51°9.927 2°41.105 225.3 2.5 230.1 7.9
2002-03-21 10:18:42 51°9.925 2°41.1 224.8 2.5 229.3 8
2002-03-21 10:18:46 51°9.923 2°41.097 224.7 2.5 231 7.9
2002-03-21 10:18:52 51°9.92 2°41.092 224.3 2.5 228.5 7.9
2002-03-21 10:18:57 51°9.918 2°41.088 222.8 2.5 228.1 7.9
2002-03-21 10:19:02 51°9.915 2°41.084 222.5 2.5 227.8 8
2002-03-21 10:19:06 51°9.913 2°41.081 221.8 2.5 224.8 8
2002-03-21 10:19:12 51°9.91 2°41.076 220.8 2.5 225.4 8
2002-03-21 10:19:16 51°9.908 2°41.073 221 2.5 224.4 8
2002-03-21 10:19:20 51°9.906 2°41.07 220.5 2.5 224.6 8
2002-03-21 10:19:26 51°9.903 2°41.065 220.5 2.5 225.3 7.9
2002-03-21 10:19:32 51°9.9 2°41.061 219.8 2.5 224.5 7.9
2002-03-21 10:19:36 51°9.899 2°41.058 219.8 2.5 225.4 7.9
2002-03-21 10:19:41 51°9.896 2°41.054 220 2.5 224.1 8
2002-03-21 10:19:47 51°9.893 2°41.049 220.7 2.6 225.8 8
2002-03-21 10:19:52 51°9.89 2°41.045 221 2.6 224.3 7.8
2002-03-21 10:19:56 51°9.888 2°41.042 222.2 2.5 225 7.9
2002-03-21 10:20:02 51°9.885 2°41.037 221.8 2.5 223.5 7.8
2002-03-21 10:20:06 51°9.883 2°41.034 222.5 2.5 224.2 7.9
2002-03-21 10:20:11 51°9.881 2°41.03 223.2 2.5 224.7 7.8
2002-03-21 10:20:16 51°9.878 2°41.026 223.7 2.5 225.6 7.9
2002-03-21 10:20:22 51°9.875 2°41.022 225.2 2.5 227.1 7.9
2002-03-21 10:20:26 51°9.873 2°41.018 226.5 2.6 227.2 7.9
2002-03-21 10:20:31 51°9.871 2°41.014 228.5 2.6 229.8 8
2002-03-21 10:20:36 51°9.869 2°41.01 230.3 2.6 230.6 8
2002-03-21 10:20:42 51°9.866 2°41.004 232.8 2.6 232.4 8
2002-03-21 10:20:47 51°9.864 2°41 235 2.6 233.7 8
2002-03-21 10:20:51 51°9.862 2°40.996 236.8 2.6 236.4 7.9
2002-03-21 10:20:56 51°9.861 2°40.992 238.8 2.5 238.5 7.9
2002-03-21 10:21:02 51°9.858 2°40.986 241.3 2.5 239.8 7.9
2002-03-21 10:21:06 51°9.858 2°40.982 243.3 2.6 242.1 7.9
2002-03-21 10:21:11 51°9.856 2°40.976 245.8 2.6 244.4 7.9
2002-03-21 10:21:16 51°9.855 2°40.971 248.3 2.6 244.7 7.9
2002-03-21 10:21:22 51°9.854 2°40.964 250.5 2.6 247.4 7.9
2002-03-21 10:21:27 51°9.853 2°40.959 253 2.6 250.5 7.9
2002-03-21 10:21:32 51°9.851 2°40.953 255.7 2.6 252 7.9
2002-03-21 10:21:36 51°9.851 2°40.949 258.2 2.6 255.6 7.9
2002-03-21 10:21:42 51°9.85 2°40.942 261.3 2.6 256.7 7.9
2002-03-21 10:21:47 51°9.849 2°40.936 263.5 2.6 260.2 7.9
2002-03-21 10:21:52 51°9.849 2°40.93 265.3 2.6 259.7 7.9
2002-03-21 10:21:56 51°9.849 2°40.926 266.7 2.6 263.2 7.9
2002-03-21 10:22:02 51°9.848 2°40.919 267.5 2.6 262.7 7.9
2002-03-21 10:22:06 51°9.848 2°40.914 268.2 2.7 265.4 7.9
2002-03-21 10:22:11 51°9.847 2°40.908 269 2.7 264.6 7.9
2002-03-21 10:22:16 51°9.847 2°40.902 269.3 2.7 266.9 7.9
2002-03-21 10:22:22 51°9.846 2°40.895 269.5 2.7 265.6 7.9
2002-03-21 10:22:25 51°9.847 2°40.892 269.3 2.7 267.8 7.9
2002-03-21 10:22:31 51°9.846 2°40.884 269.7 2.7 266.1 7.9
2002-03-21 10:22:36 51°9.846 2°40.878 269.2 2.7 267.8 7.9
2002-03-21 10:22:40 51°9.846 2°40.873 268.8 2.7 267 8
2002-03-21 10:22:46 51°9.846 2°40.866 268.2 2.7 266.9 8
2002-03-21 10:22:51 51°9.845 2°40.86 268 2.7 266.6 8
2002-03-21 10:22:56 51°9.845 2°40.854 267.5 2.7 265 8
2002-03-21 10:23:00 51°9.845 2°40.85 266.7 2.7 265 8
2002-03-21 10:23:06 51°9.844 2°40.842 266.3 2.7 264.2 8
2002-03-21 10:23:12 51°9.844 2°40.835 265.3 2.7 263.5 8
2002-03-21 10:23:16 51°9.843 2°40.83 265 2.7 263.3 8
2002-03-21 10:23:22 51°9.843 2°40.823 264.5 2.7 262.6 8
2002-03-21 10:23:27 51°9.842 2°40.817 264.5 2.8 260.6 8
2002-03-21 10:23:32 51°9.842 2°40.811 264 2.8 263.3 8
2002-03-21 10:23:36 51°9.841 2°40.806 264.3 2.8 261.6 8
2002-03-21 10:23:42 51°9.841 2°40.799 264 2.8 263.3 8.1
2002-03-21 10:23:46 51°9.84 2°40.794 264.2 2.8 261.2 8
2002-03-21 10:23:51 51°9.84 2°40.788 264.3 2.8 262.4 8.1
2002-03-21 10:23:56 51°9.839 2°40.782 263.8 2.8 261.1 8
2002-03-21 10:24:02 51°9.838 2°40.775 263.7 2.8 261.2 8
2002-03-21 10:24:06 51°9.838 2°40.77 263.5 2.8 261.2 8.1
2002-03-21 10:24:11 51°9.837 2°40.764 263.5 2.8 261.8 8.1
2002-03-21 10:24:16 51°9.836 2°40.758 264 2.8 260.2 8.1
2002-03-21 10:24:22 51°9.836 2°40.75 263.7 2.8 260.9 8.1
2002-03-21 10:24:27 51°9.835 2°40.744 263.8 2.8 260.5 8.2
2002-03-21 10:24:32 51°9.834 2°40.738 263.7 2.8 261.2 8.1
2002-03-21 10:24:36 51°9.834 2°40.733 263.7 2.9 260.8 8.1
2002-03-21 10:24:42 51°9.833 2°40.725 263.7 2.9 261.7 8.1
2002-03-21 10:24:46 51°9.832 2°40.721 263.5 2.8 259.9 8.1
2002-03-21 10:24:51 51°9.831 2°40.715 263 2.8 260.1 8.1
2002-03-21 10:24:56 51°9.831 2°40.709 262.3 2.8 259.7 8.1
2002-03-21 10:25:02 51°9.83 2°40.701 262 2.9 259.7 8.1
2002-03-21 10:25:06 51°9.829 2°40.696 261.7 2.9 259.6 8.2
2002-03-21 10:25:12 51°9.828 2°40.689 261.2 2.9 260.2 8.2
2002-03-21 10:25:16 51°9.828 2°40.683 260.8 2.9 259.1 8.2
2002-03-21 10:25:22 51°9.828 2°40.675 260.2 2.9 260.1 8.2
2002-03-21 10:25:26 51°9.827 2°40.671 260.2 2.9 257.7 8.2
2002-03-21 10:25:31 51°9.826 2°40.664 259.5 2.9 259 8.2
2002-03-21 10:25:36 51°9.825 2°40.658 259.2 2.9 256.7 8.2
2002-03-21 10:25:42 51°9.824 2°40.65 258.7 2.9 257.4 8.2
2002-03-21 10:25:46 51°9.823 2°40.645 258 2.9 257.4 8.2
2002-03-21 10:25:51 51°9.822 2°40.639 257.3 2.9 257 8.1
2002-03-21 10:25:56 51°9.821 2°40.633 256.7 2.9 253.9 8.2
2002-03-21 10:26:02 51°9.82 2°40.626 256 2.9 254.6 8.2
2002-03-21 10:26:07 51°9.818 2°40.62 255.3 2.9 252.8 8.3
2002-03-21 10:26:11 51°9.818 2°40.615 254.3 2.9 253.5 8.2
2002-03-21 10:26:17 51°9.816 2°40.607 253.7 2.9 251.7 8.2
2002-03-21 10:26:22 51°9.815 2°40.601 253 2.9 251.5 8.2
2002-03-21 10:26:27 51°9.813 2°40.595 252.2 2.9 251.2 8.2
2002-03-21 10:26:32 51°9.812 2°40.589 251.3 2.9 251.1 8.2
2002-03-21 10:26:36 51°9.811 2°40.585 250.5 2.9 249.7 8.2
2002-03-21 10:26:40 51°9.81 2°40.58 249.8 2.9 249.7 8.2
2002-03-21 10:26:46 51°9.808 2°40.573 249.7 2.9 248.9 8.2
2002-03-21 10:26:51 51°9.806 2°40.567 249.7 2.9 248.4 8.2
2002-03-21 10:26:56 51°9.805 2°40.561 249.2 2.9 249.7 8.3
2002-03-21 10:27:02 51°9.803 2°40.554 248.8 2.9 247.8 8.2
2002-03-21 10:27:06 51°9.802 2°40.549 248.7 2.9 249.1 8.3
2002-03-21 10:27:12 51°9.8 2°40.542 249 2.9 246.9 8.2
2002-03-21 10:27:17 51°9.799 2°40.536 248.5 2.9 249.3 8.2
2002-03-21 10:27:22 51°9.797 2°40.53 248.7 2.9 246.4 8.2
2002-03-21 10:27:26 51°9.796 2°40.525 248.7 2.9 249.4 8.2
2002-03-21 10:27:32 51°9.794 2°40.518 248.7 2.9 246.3 8.2
2002-03-21 10:27:36 51°9.793 2°40.513 248.7 2.9 250.2 8.3
2002-03-21 10:27:42 51°9.791 2°40.506 249 2.9 246.5 8.3
2002-03-21 10:27:46 51°9.79 2°40.501 249 2.9 249.5 8.2
2002-03-21 10:27:51 51°9.788 2°40.496 249 2.9 248.1 7.9
2002-03-21 10:27:56 51°9.787 2°40.49 248.8 2.9 248.8 8.2
2002-03-21 10:28:02 51°9.785 2°40.482 248.8 2.9 248.6 8.3
2002-03-21 10:28:06 51°9.784 2°40.478 249.2 2.9 248.5 8.3
2002-03-21 10:28:11 51°9.783 2°40.472 248.7 2.9 248.6 8.2
2002-03-21 10:28:16 51°9.781 2°40.466 248.8 2.9 248.6 8.2
2002-03-21 10:28:22 51°9.78 2°40.458 249 2.9 249.6 8.2
2002-03-21 10:28:26 51°9.778 2°40.454 249 2.9 247.5 8.2
2002-03-21 10:28:32 51°9.777 2°40.447 248.5 2.9 248.9 8.3
2002-03-21 10:28:36 51°9.775 2°40.442 248.7 2.9 247.2 8.2
2002-03-21 10:28:42 51°9.774 2°40.435 248.7 2.9 248.4 8.3
2002-03-21 10:28:46 51°9.772 2°40.43 248.2 2.8 246.8 8.2
2002-03-21 10:28:52 51°9.77 2°40.424 247.8 2.8 247.7 8.2
2002-03-21 10:28:56 51°9.769 2°40.419 247.5 2.8 246.2 8.2
2002-03-21 10:29:02 51°9.767 2°40.412 247.3 2.8 247.3 8.2
2002-03-21 10:29:07 51°9.766 2°40.407 247.2 2.7 245.6 8.2
2002-03-21 10:29:12 51°9.764 2°40.402 247.5 2.7 245.5 8.3
2002-03-21 10:29:16 51°9.763 2°40.398 248 2.7 245.2 8.2
2002-03-21 10:29:20 51°9.762 2°40.393 248 2.6 245.6 8.2
2002-03-21 10:29:26 51°9.76 2°40.387 248.3 2.6 246.7 8.3
2002-03-21 10:29:32 51°9.758 2°40.381 249 2.6 246.3 8.2
2002-03-21 10:29:36 51°9.757 2°40.377 249.5 2.6 246.6 8.2
2002-03-21 10:29:42 51°9.756 2°40.37 250.7 2.6 248.5 8.3
2002-03-21 10:29:46 51°9.754 2°40.366 251.8 2.6 247.7 8.3
2002-03-21 10:29:52 51°9.753 2°40.36 253.2 2.5 250.6 8.3
2002-03-21 10:29:57 51°9.752 2°40.355 254 2.5 251 8.3
2002-03-21 10:30:02 51°9.751 2°40.349 255.2 2.5 252.1 8.2
2002-03-21 10:30:06 51°9.75 2°40.345 256.5 2.5 251.8 8.2
2002-03-21 10:30:11 51°9.749 2°40.34 257.8 2.5 254.7 7.9
2002-03-21 10:30:16 51°9.748 2°40.335 259.2 2.5 253.3 8.3